Longbranch, Washington
Current Conditions -  °F | °C
As of 11:00 AM on Thursday 30 Oct 2014 (Local Time) from KTIW Reporting Station
Light Rain Light Rain  
Wind Chill: 54°   Ceiling: 100
Heat Index: 54°   Visibility: 3mi
Dew Point: 53°   Wind: 0mph
Humidity: 97%   Direction: NA
Pressure: 29.84"   Gusts: NA
Location:  47.21°N, 122.76°W
Report Text: KTIW 301800Z 00000KT 3SM -RA BR BKN001 BKN047 OVC095 12/12 A2984 RMK AO2 P0000 T01220117
Loading
Personal Weather Stations






























Interactive Weather Map
Tropical Storm Tracking
New forecast layout! Learn more

10-Day Weather Forecast

Advertisements
Track Severe Weather on mobile